createdAt,value
2018-01-31T01:52:43.936Z,8.73
2018-01-31T01:53:43.922Z,8.71
2018-01-31T01:54:43.910Z,8.73
2018-01-31T01:55:43.899Z,8.63
2018-01-31T01:56:43.888Z,8.58
2018-01-31T01:57:43.877Z,8.66
2018-01-31T01:58:43.864Z,8.63
2018-01-31T01:59:43.854Z,8.63
2018-01-31T02:00:43.842Z,8.64
2018-01-31T02:01:43.830Z,8.66
2018-01-31T02:02:43.817Z,8.66
2018-01-31T02:03:43.806Z,8.74
2018-01-31T02:04:43.797Z,8.70
2018-01-31T02:05:43.784Z,8.70
2018-01-31T02:06:43.772Z,8.66
2018-01-31T02:07:43.761Z,8.71
2018-01-31T02:08:43.749Z,8.67
2018-01-31T02:09:43.739Z,8.76
2018-01-31T02:10:43.726Z,8.70
2018-01-31T02:11:43.715Z,8.76
2018-01-31T02:12:43.708Z,8.74
2018-01-31T02:13:43.692Z,8.70
2018-01-31T02:14:43.680Z,8.73
2018-01-31T02:15:43.672Z,8.76
2018-01-31T02:16:43.657Z,8.73
2018-01-31T02:17:43.645Z,8.70
2018-01-31T02:18:43.634Z,8.78
2018-01-31T02:19:43.622Z,8.76
2018-01-31T02:20:43.610Z,8.71
2018-01-31T02:21:43.600Z,8.70
2018-01-31T02:22:43.587Z,8.73
2018-01-31T02:23:43.576Z,8.70
2018-01-31T02:24:43.565Z,8.70
2018-01-31T02:25:43.554Z,8.74
2018-01-31T02:26:43.546Z,8.73
2018-01-31T02:27:43.532Z,8.76
2018-01-31T02:28:43.522Z,8.74
2018-01-31T02:29:43.507Z,8.74
2018-01-31T02:30:43.495Z,8.73
2018-01-31T02:31:43.484Z,8.67
2018-01-31T02:32:43.473Z,8.74
2018-01-31T02:33:43.461Z,8.73
2018-01-31T02:34:43.458Z,8.73
2018-01-31T02:35:43.439Z,8.69
2018-01-31T02:36:43.428Z,8.61
2018-01-31T02:37:43.415Z,8.73
2018-01-31T02:38:43.404Z,8.71
2018-01-31T02:39:43.453Z,8.67
2018-01-31T02:40:43.381Z,8.70
2018-01-31T02:41:43.370Z,8.73
2018-01-31T02:42:43.357Z,8.66
2018-01-31T02:43:43.347Z,8.67
2018-01-31T02:44:43.336Z,8.70
2018-01-31T02:45:43.324Z,8.76
2018-01-31T02:46:43.312Z,8.67
2018-01-31T02:47:43.301Z,8.71
2018-01-31T02:48:43.290Z,8.76
2018-01-31T02:49:43.278Z,8.69
2018-01-31T02:50:43.268Z,8.71
2018-01-31T02:51:43.257Z,8.73
2018-01-31T02:52:43.245Z,8.71
2018-01-31T02:53:43.234Z,8.74
2018-01-31T02:54:43.221Z,8.74
2018-01-31T02:55:43.211Z,8.69
2018-01-31T02:56:43.199Z,8.82
2018-01-31T02:57:43.188Z,8.81
2018-01-31T02:58:43.177Z,8.79
2018-01-31T02:59:43.164Z,8.85
2018-01-31T03:00:43.154Z,8.87
2018-01-31T03:01:43.143Z,8.87
2018-01-31T03:02:43.131Z,8.79
2018-01-31T03:03:43.119Z,8.78
2018-01-31T03:04:43.108Z,8.87
2018-01-31T03:05:43.096Z,8.91
2018-01-31T03:06:43.091Z,8.82
2018-01-31T03:07:43.074Z,8.89
2018-01-31T03:08:43.064Z,8.88
2018-01-31T03:09:43.053Z,8.91
2018-01-31T03:10:43.040Z,8.94
2018-01-31T03:11:43.028Z,8.92
2018-01-31T03:12:43.018Z,8.95
2018-01-31T03:13:43.007Z,8.92
2018-01-31T03:14:42.993Z,8.99
2018-01-31T03:15:42.983Z,8.99
2018-01-31T03:16:42.973Z,8.94
2018-01-31T03:17:42.961Z,8.92
2018-01-31T03:18:42.951Z,9.02
2018-01-31T03:19:42.938Z,9.04
2018-01-31T03:20:42.928Z,8.94
2018-01-31T03:21:42.916Z,9.03
2018-01-31T03:22:42.904Z,8.92
2018-01-31T03:23:42.893Z,8.87
2018-01-31T03:24:42.885Z,8.91
2018-01-31T03:25:42.870Z,8.89
2018-01-31T03:26:42.858Z,8.91
2018-01-31T03:27:42.847Z,8.89
2018-01-31T03:28:42.836Z,8.89
2018-01-31T03:29:42.825Z,8.81
2018-01-31T03:30:42.814Z,8.89
2018-01-31T03:31:42.802Z,8.76
2018-01-31T03:32:42.790Z,8.81
2018-01-31T03:33:42.785Z,8.81
2018-01-31T03:34:42.766Z,8.82
2018-01-31T03:35:42.755Z,8.87
2018-01-31T03:36:42.750Z,8.76
2018-01-31T03:37:42.733Z,8.81
2018-01-31T03:38:42.720Z,8.79
2018-01-31T03:39:42.710Z,8.79
2018-01-31T03:40:42.699Z,8.82
2018-01-31T03:41:42.687Z,8.85
2018-01-31T03:42:42.675Z,8.79
2018-01-31T03:43:42.663Z,8.79
2018-01-31T03:44:42.652Z,8.81
2018-01-31T03:45:42.640Z,8.82
2018-01-31T03:46:42.628Z,8.79
2018-01-31T03:47:42.617Z,8.76
2018-01-31T03:48:42.606Z,8.74
2018-01-31T03:49:42.594Z,8.73
2018-01-31T03:50:42.583Z,8.78
2018-01-31T03:51:42.571Z,8.82
2018-01-31T03:52:42.558Z,8.89
2018-01-31T03:53:42.547Z,8.85
2018-01-31T03:54:42.535Z,8.79
2018-01-31T03:55:42.524Z,8.82
2018-01-31T03:56:42.512Z,8.79
2018-01-31T03:57:42.500Z,8.88
2018-01-31T03:58:42.488Z,8.76
2018-01-31T03:59:42.477Z,8.79
2018-01-31T04:00:42.465Z,8.82
2018-01-31T04:01:42.455Z,8.84
2018-01-31T04:02:42.442Z,8.82
2018-01-31T04:03:42.430Z,8.87
2018-01-31T04:04:42.419Z,8.84
2018-01-31T04:05:42.407Z,8.84
2018-01-31T04:06:42.395Z,8.87
2018-01-31T04:07:42.384Z,8.91
2018-01-31T04:08:42.373Z,8.87
2018-01-31T04:09:42.361Z,8.87
2018-01-31T04:10:42.348Z,8.95
2018-01-31T04:11:42.338Z,8.88
2018-01-31T04:12:42.326Z,8.91
2018-01-31T04:13:42.314Z,8.91
2018-01-31T04:14:42.303Z,8.92
2018-01-31T04:15:42.293Z,8.95
2018-01-31T04:16:42.281Z,9.00
2018-01-31T04:17:42.271Z,8.95
2018-01-31T04:18:42.258Z,8.91
2018-01-31T04:19:42.246Z,8.97
2018-01-31T04:20:42.235Z,8.92
2018-01-31T04:21:42.225Z,8.91
2018-01-31T04:22:42.214Z,8.97
2018-01-31T04:23:42.201Z,8.99
2018-01-31T04:24:42.191Z,8.95
2018-01-31T04:25:42.178Z,8.89
2018-01-31T04:26:42.166Z,8.89
2018-01-31T04:27:42.155Z,8.92
2018-01-31T04:28:42.144Z,8.92
2018-01-31T04:29:42.133Z,8.89
2018-01-31T04:30:42.136Z,8.97
2018-01-31T04:31:42.110Z,8.94
2018-01-31T04:32:42.099Z,8.94
2018-01-31T04:33:42.087Z,8.97
2018-01-31T04:34:42.074Z,9.03
2018-01-31T04:35:42.064Z,8.99
2018-01-31T04:36:42.054Z,9.04
2018-01-31T04:37:42.042Z,8.97
2018-01-31T04:38:42.030Z,8.92
2018-01-31T04:39:42.019Z,8.97
2018-01-31T04:40:42.008Z,8.95
2018-01-31T04:41:41.997Z,8.97
2018-01-31T04:42:41.984Z,9.03
2018-01-31T04:43:41.974Z,9.00
2018-01-31T04:44:41.962Z,9.06
2018-01-31T04:45:41.954Z,8.97
2018-01-31T04:46:41.940Z,8.99
2018-01-31T04:47:41.929Z,8.95
2018-01-31T04:48:41.917Z,8.99
2018-01-31T04:49:41.907Z,8.84
2018-01-31T04:50:41.894Z,8.92
2018-01-31T04:51:41.884Z,8.87
2018-01-31T04:52:41.872Z,8.92
2018-01-31T04:53:41.859Z,8.91
2018-01-31T04:54:41.849Z,8.91
2018-01-31T04:55:41.838Z,8.99
2018-01-31T04:56:41.826Z,8.99
2018-01-31T04:57:41.816Z,8.92
2018-01-31T04:58:41.805Z,8.91
2018-01-31T04:59:41.792Z,8.92
2018-01-31T05:00:41.785Z,8.91
2018-01-31T05:01:41.769Z,8.91
2018-01-31T05:02:41.758Z,8.94
2018-01-31T05:03:41.747Z,8.95
2018-01-31T05:04:41.736Z,9.03
2018-01-31T05:05:41.729Z,8.95
2018-01-31T05:06:41.715Z,8.97
2018-01-31T05:07:41.702Z,8.97
2018-01-31T05:08:41.690Z,9.03
2018-01-31T05:09:41.679Z,8.94
2018-01-31T05:10:41.668Z,9.00
2018-01-31T05:11:41.657Z,8.94
2018-01-31T05:12:41.646Z,9.06
2018-01-31T05:13:41.634Z,9.06
2018-01-31T05:14:41.622Z,8.99
2018-01-31T05:15:41.611Z,8.97
2018-01-31T05:16:41.600Z,9.04
2018-01-31T05:17:41.589Z,9.06
2018-01-31T05:18:41.577Z,8.99
2018-01-31T05:19:41.567Z,9.03
2018-01-31T05:20:41.559Z,9.06
2018-01-31T05:21:41.551Z,9.04
2018-01-31T05:22:41.533Z,9.03
2018-01-31T05:23:41.521Z,9.06
2018-01-31T05:24:41.509Z,9.06
2018-01-31T05:25:41.499Z,9.00
2018-01-31T05:26:41.487Z,8.97
2018-01-31T05:27:41.477Z,8.95
2018-01-31T05:28:41.466Z,8.95
2018-01-31T05:29:41.454Z,9.00
2018-01-31T05:30:41.442Z,8.95
2018-01-31T05:31:41.431Z,9.03
2018-01-31T05:32:41.420Z,9.00
2018-01-31T05:33:41.409Z,8.95
2018-01-31T05:34:41.397Z,8.94
2018-01-31T05:35:41.385Z,8.97
2018-01-31T05:36:41.375Z,8.97
2018-01-31T05:37:41.370Z,9.00
2018-01-31T05:38:41.351Z,9.00
2018-01-31T05:39:41.340Z,8.97
2018-01-31T05:40:41.331Z,9.00
2018-01-31T05:41:41.320Z,9.06
2018-01-31T05:42:41.307Z,9.11
2018-01-31T05:43:41.294Z,9.08
2018-01-31T05:44:41.286Z,9.08
2018-01-31T05:45:41.273Z,9.10
2018-01-31T05:46:41.262Z,9.14
2018-01-31T05:47:41.258Z,9.06
2018-01-31T05:48:41.239Z,9.04
2018-01-31T05:49:41.229Z,9.02
2018-01-31T05:50:41.215Z,9.04
2018-01-31T05:51:41.205Z,9.06
2018-01-31T05:52:41.194Z,9.02
2018-01-31T05:53:41.185Z,9.00
2018-01-31T05:54:41.171Z,8.99
2018-01-31T05:55:41.160Z,8.97
2018-01-31T05:56:41.148Z,8.97
2018-01-31T05:57:41.137Z,8.95
2018-01-31T05:58:41.125Z,8.97
2018-01-31T05:59:41.116Z,9.06
2018-01-31T06:00:41.104Z,9.06
2018-01-31T06:01:41.093Z,8.97
2018-01-31T06:02:41.080Z,8.94
2018-01-31T06:03:41.083Z,8.95
2018-01-31T06:04:41.057Z,8.99
2018-01-31T06:05:41.047Z,8.97
2018-01-31T06:06:41.035Z,8.85
2018-01-31T06:07:41.025Z,8.91
2018-01-31T06:08:41.013Z,8.92
2018-01-31T06:09:41.003Z,8.91
2018-01-31T06:10:40.990Z,8.89
2018-01-31T06:11:40.979Z,8.92
2018-01-31T06:12:40.969Z,8.89
2018-01-31T06:13:40.957Z,8.91
2018-01-31T06:14:40.945Z,8.76
2018-01-31T06:15:40.935Z,8.78
2018-01-31T06:16:40.923Z,8.89
2018-01-31T06:17:40.912Z,8.82
2018-01-31T06:18:40.900Z,8.84
2018-01-31T06:19:40.893Z,8.88
2018-01-31T06:20:40.880Z,8.84
2018-01-31T06:21:40.873Z,8.88
2018-01-31T06:22:40.864Z,8.88
2018-01-31T06:23:40.844Z,8.92
2018-01-31T06:24:40.833Z,8.78
2018-01-31T06:25:40.822Z,8.91
2018-01-31T06:26:40.809Z,8.87
2018-01-31T06:27:40.798Z,8.87
2018-01-31T06:28:40.789Z,8.88
2018-01-31T06:29:40.778Z,8.89
2018-01-31T06:30:40.765Z,8.78
2018-01-31T06:31:40.755Z,8.76
2018-01-31T06:32:40.742Z,8.84
2018-01-31T06:33:40.731Z,8.82
2018-01-31T06:34:40.718Z,8.74
2018-01-31T06:35:40.707Z,8.70
2018-01-31T06:36:40.696Z,8.71
2018-01-31T06:37:40.685Z,8.78
2018-01-31T06:38:40.673Z,8.74
2018-01-31T06:39:40.662Z,8.71
2018-01-31T06:40:40.651Z,8.66
2018-01-31T06:41:40.639Z,8.66
2018-01-31T06:42:40.628Z,8.63
2018-01-31T06:43:40.617Z,8.64
2018-01-31T06:44:40.605Z,8.63
2018-01-31T06:45:40.593Z,8.56
2018-01-31T06:46:40.581Z,8.56
2018-01-31T06:47:40.569Z,8.49
2018-01-31T06:48:40.558Z,8.55
2018-01-31T06:49:40.546Z,8.55
2018-01-31T06:50:40.535Z,8.61
2018-01-31T06:51:40.523Z,8.60
2018-01-31T06:52:40.511Z,8.49
2018-01-31T06:53:40.500Z,8.51
2018-01-31T06:54:40.488Z,8.49
2018-01-31T06:55:40.477Z,8.53
2018-01-31T06:56:40.465Z,8.48
2018-01-31T06:57:40.454Z,8.48
2018-01-31T06:58:40.442Z,8.49
2018-01-31T06:59:40.429Z,8.55
2018-01-31T07:00:40.419Z,8.49
2018-01-31T07:01:40.409Z,8.44
2018-01-31T07:02:40.396Z,8.52
2018-01-31T07:03:40.385Z,8.53
2018-01-31T07:04:40.378Z,8.58
2018-01-31T07:05:40.365Z,8.45
2018-01-31T07:06:40.349Z,8.49
2018-01-31T07:07:40.339Z,8.48
2018-01-31T07:08:40.349Z,8.45
2018-01-31T07:09:40.319Z,8.58
2018-01-31T07:10:40.305Z,8.49
2018-01-31T07:11:40.292Z,8.52
2018-01-31T07:12:40.282Z,8.52
2018-01-31T07:13:40.270Z,8.55
2018-01-31T07:14:40.257Z,8.53
2018-01-31T07:15:40.247Z,8.56
2018-01-31T07:16:40.234Z,8.51
2018-01-31T07:17:40.224Z,8.53
2018-01-31T07:18:40.212Z,8.51
2018-01-31T07:19:40.200Z,8.58
2018-01-31T07:20:40.189Z,8.53
2018-01-31T07:21:40.177Z,8.53
2018-01-31T07:22:40.165Z,8.55
2018-01-31T07:23:40.154Z,8.53
2018-01-31T07:24:40.148Z,8.55
2018-01-31T07:25:40.132Z,8.52
2018-01-31T07:26:40.121Z,8.53
2018-01-31T07:27:40.176Z,8.61
2018-01-31T07:28:40.098Z,8.53
2018-01-31T07:29:40.089Z,8.51
2018-01-31T07:30:40.075Z,8.56
2018-01-31T07:31:40.062Z,8.53
2018-01-31T07:32:40.052Z,8.53
2018-01-31T07:33:40.040Z,8.58
2018-01-31T07:34:40.028Z,8.53
2018-01-31T07:35:40.017Z,8.55
2018-01-31T07:36:40.006Z,8.55
2018-01-31T07:37:39.994Z,8.58
2018-01-31T07:38:39.990Z,8.60
2018-01-31T07:39:39.971Z,8.55
2018-01-31T07:40:39.960Z,8.60
2018-01-31T07:41:39.949Z,8.60
2018-01-31T07:42:39.936Z,8.56
2018-01-31T07:43:39.925Z,8.55
2018-01-31T07:44:39.914Z,8.64
2018-01-31T07:45:39.902Z,8.53
2018-01-31T07:46:39.890Z,8.60
2018-01-31T07:47:39.879Z,8.60
2018-01-31T07:48:39.868Z,8.61
2018-01-31T07:49:39.856Z,8.63
2018-01-31T07:50:39.844Z,8.67
2018-01-31T07:51:39.833Z,8.64
2018-01-31T07:52:39.822Z,8.64
2018-01-31T07:53:39.810Z,8.64
2018-01-31T07:54:39.799Z,8.61
2018-01-31T07:55:39.787Z,8.66
2018-01-31T07:56:39.775Z,8.63
2018-01-31T07:57:39.764Z,8.63
2018-01-31T07:58:39.751Z,8.73
2018-01-31T07:59:39.741Z,8.64
2018-01-31T08:00:39.765Z,8.73
2018-01-31T08:01:39.719Z,8.71
2018-01-31T08:02:39.707Z,8.71
2018-01-31T08:03:39.699Z,8.76
2018-01-31T08:04:39.684Z,8.69
2018-01-31T08:05:39.677Z,8.69
2018-01-31T08:06:39.661Z,8.74
2018-01-31T08:07:39.650Z,8.74
2018-01-31T08:08:39.640Z,8.71
2018-01-31T08:09:39.628Z,8.71
2018-01-31T08:10:39.617Z,8.73
2018-01-31T08:11:39.612Z,8.76
2018-01-31T08:12:39.595Z,8.81
2018-01-31T08:13:39.583Z,8.78
2018-01-31T08:14:39.571Z,8.78
2018-01-31T08:15:39.560Z,8.91
2018-01-31T08:16:39.549Z,8.78
2018-01-31T08:17:39.538Z,8.87
2018-01-31T08:18:39.530Z,8.85
2018-01-31T08:19:39.514Z,8.91
2018-01-31T08:20:39.504Z,8.91
2018-01-31T08:21:39.492Z,8.91
2018-01-31T08:22:39.479Z,8.84
2018-01-31T08:23:39.469Z,8.89
2018-01-31T08:24:39.458Z,8.88
2018-01-31T08:25:39.448Z,8.87
2018-01-31T08:26:39.435Z,8.81
2018-01-31T08:27:39.430Z,8.91
2018-01-31T08:28:39.413Z,8.89
2018-01-31T08:29:39.402Z,8.89
2018-01-31T08:30:39.390Z,8.91
2018-01-31T08:31:39.378Z,8.91
2018-01-31T08:32:39.368Z,8.91
2018-01-31T08:33:39.357Z,8.87
2018-01-31T08:34:39.345Z,9.00
2018-01-31T08:35:39.334Z,9.03
2018-01-31T08:36:39.323Z,8.97
2018-01-31T08:37:39.313Z,9.02
2018-01-31T08:38:39.300Z,9.02
2018-01-31T08:39:39.296Z,8.99
2018-01-31T08:40:39.278Z,9.02
2018-01-31T08:41:39.267Z,8.99
2018-01-31T08:42:39.254Z,8.97
2018-01-31T08:43:39.244Z,8.91
2018-01-31T08:44:39.233Z,8.97
2018-01-31T08:45:39.222Z,8.91
2018-01-31T08:46:39.210Z,8.91
2018-01-31T08:47:39.200Z,8.92
2018-01-31T08:48:39.189Z,8.94
2018-01-31T08:49:39.178Z,8.94
2018-01-31T08:50:39.165Z,8.99
2018-01-31T08:51:39.155Z,9.04
2018-01-31T08:52:39.144Z,8.99
2018-01-31T08:53:39.132Z,8.88
2018-01-31T08:54:39.120Z,8.89
2018-01-31T08:55:39.110Z,8.89
2018-01-31T08:56:39.099Z,8.92
2018-01-31T08:57:39.088Z,8.88
2018-01-31T08:58:39.077Z,8.87
2018-01-31T08:59:39.066Z,8.92
2018-01-31T09:00:39.055Z,8.81
2018-01-31T09:01:39.044Z,8.94
2018-01-31T09:02:39.032Z,8.89
2018-01-31T09:03:39.021Z,8.88
2018-01-31T09:04:39.010Z,8.91
2018-01-31T09:05:38.999Z,8.94
2018-01-31T09:06:38.988Z,8.91
2018-01-31T09:07:38.977Z,8.88
2018-01-31T09:08:38.967Z,8.94
2018-01-31T09:09:38.954Z,8.92
2018-01-31T09:10:38.952Z,9.00
2018-01-31T09:11:38.932Z,9.00
2018-01-31T09:12:38.925Z,8.97
2018-01-31T09:13:38.911Z,9.00
2018-01-31T09:14:38.899Z,8.91
2018-01-31T09:15:38.890Z,9.02
2018-01-31T09:16:38.925Z,8.97
2018-01-31T09:17:38.867Z,9.02
2018-01-31T09:18:38.855Z,8.94
2018-01-31T09:19:38.844Z,8.97
2018-01-31T09:20:38.834Z,9.00
2018-01-31T09:21:38.823Z,9.02
2018-01-31T09:22:38.855Z,8.95
2018-01-31T09:23:38.800Z,8.94
2018-01-31T09:24:38.789Z,8.95
2018-01-31T09:25:38.779Z,8.97
2018-01-31T09:26:38.767Z,9.02
2018-01-31T09:27:38.756Z,9.03
2018-01-31T09:28:38.749Z,8.92
2018-01-31T09:29:38.734Z,8.99
2018-01-31T09:30:38.723Z,8.97
2018-01-31T09:31:38.712Z,8.95
2018-01-31T09:32:38.701Z,8.95
2018-01-31T09:33:38.690Z,8.95
2018-01-31T09:34:38.680Z,9.03
2018-01-31T09:35:38.668Z,8.97
2018-01-31T09:36:38.656Z,9.04
2018-01-31T09:37:38.645Z,9.06
2018-01-31T09:38:38.633Z,8.97
2018-01-31T09:39:38.625Z,9.06
2018-01-31T09:40:38.612Z,9.02
2018-01-31T09:41:38.601Z,9.03
2018-01-31T09:42:38.589Z,9.08
2018-01-31T09:43:38.578Z,9.08
2018-01-31T09:44:38.567Z,9.03
2018-01-31T09:45:38.557Z,9.10
2018-01-31T09:46:38.552Z,9.10
2018-01-31T09:47:38.534Z,9.14
2018-01-31T09:48:38.524Z,9.03
2018-01-31T09:49:38.513Z,9.06
2018-01-31T09:50:38.501Z,9.11
2018-01-31T09:51:38.490Z,9.04
2018-01-31T09:52:38.480Z,9.10
2018-01-31T09:53:38.468Z,9.08
2018-01-31T09:54:38.458Z,9.16
2018-01-31T09:55:38.446Z,9.10
2018-01-31T09:56:38.436Z,9.11
2018-01-31T09:57:38.424Z,9.11
2018-01-31T09:58:38.413Z,9.11
2018-01-31T09:59:38.402Z,9.11
2018-01-31T10:00:38.392Z,9.03
2018-01-31T10:01:38.380Z,9.00
2018-01-31T10:02:38.369Z,8.92
2018-01-31T10:03:38.358Z,8.89
2018-01-31T10:04:38.347Z,8.91
2018-01-31T10:05:38.336Z,8.91
2018-01-31T10:06:38.324Z,8.87
2018-01-31T10:07:38.314Z,8.88
2018-01-31T10:08:38.303Z,8.88
2018-01-31T10:09:38.292Z,8.87
2018-01-31T10:10:38.293Z,8.87
2018-01-31T10:11:38.274Z,8.87
2018-01-31T10:12:38.258Z,8.79
2018-01-31T10:13:38.248Z,8.89
2018-01-31T10:14:38.237Z,8.89
2018-01-31T10:15:38.224Z,8.91
2018-01-31T10:16:38.214Z,8.94
2018-01-31T10:17:38.202Z,8.89
2018-01-31T10:18:38.191Z,8.88
2018-01-31T10:19:38.182Z,8.94
2018-01-31T10:20:38.171Z,8.94
2018-01-31T10:21:38.159Z,8.95
2018-01-31T10:22:38.147Z,8.99
2018-01-31T10:23:38.135Z,8.99
2018-01-31T10:24:38.125Z,8.97
2018-01-31T10:25:38.116Z,8.94
2018-01-31T10:26:38.102Z,8.91
2018-01-31T10:27:38.092Z,8.89
2018-01-31T10:28:38.080Z,8.95
2018-01-31T10:29:38.079Z,8.91
2018-01-31T10:30:38.058Z,8.88
2018-01-31T10:31:38.047Z,8.85
2018-01-31T10:32:38.037Z,8.81
2018-01-31T10:33:38.026Z,8.71
2018-01-31T10:34:38.014Z,8.74
2018-01-31T10:35:38.003Z,8.64
2018-01-31T10:36:37.991Z,8.61
2018-01-31T10:37:37.981Z,8.61
2018-01-31T10:38:37.968Z,8.55
2018-01-31T10:39:37.957Z,8.51
2018-01-31T10:40:37.947Z,8.53
2018-01-31T10:41:37.935Z,8.44
2018-01-31T10:42:37.923Z,8.51
2018-01-31T10:43:37.913Z,8.44
2018-01-31T10:44:37.901Z,8.37
2018-01-31T10:45:37.890Z,8.28
2018-01-31T10:46:37.881Z,8.27
2018-01-31T10:47:37.866Z,8.34
2018-01-31T10:48:37.855Z,8.26
2018-01-31T10:49:37.845Z,8.20
2018-01-31T10:50:37.832Z,8.18
2018-01-31T10:51:37.820Z,8.10
2018-01-31T10:52:37.810Z,8.09
2018-01-31T10:57:37.751Z,8.03
2018-01-31T10:58:37.739Z,8.01
2018-01-31T10:59:37.728Z,8.06
2018-01-31T11:00:37.717Z,7.98
2018-01-31T11:01:37.706Z,8.01
2018-01-31T11:02:37.693Z,8.03
2018-01-31T11:03:37.682Z,8.00
2018-01-31T11:04:37.670Z,8.01
2018-01-31T11:05:37.660Z,8.09
2018-01-31T11:06:37.650Z,8.13
2018-01-31T11:07:37.634Z,8.23
2018-01-31T11:08:37.624Z,8.26
2018-01-31T11:09:37.620Z,8.20
2018-01-31T11:10:37.600Z,8.24
2018-01-31T11:11:37.589Z,8.20
2018-01-31T11:12:37.576Z,8.34
2018-01-31T11:13:37.616Z,8.33
2018-01-31T11:14:37.553Z,8.34
2018-01-31T11:15:37.543Z,8.27
2018-01-31T11:16:37.531Z,8.27
2018-01-31T11:17:37.521Z,8.27
2018-01-31T11:18:37.507Z,8.28
2018-01-31T11:19:37.496Z,8.37
2018-01-31T11:20:37.484Z,8.42
2018-01-31T11:21:37.473Z,8.38
2018-01-31T11:22:37.463Z,8.42
2018-01-31T11:23:37.456Z,8.42
2018-01-31T11:24:37.438Z,8.42
2018-01-31T11:25:37.428Z,8.51
2018-01-31T11:26:37.438Z,8.44
2018-01-31T11:27:37.403Z,8.36
2018-01-31T11:28:37.393Z,8.49
2018-01-31T11:29:37.381Z,8.46
2018-01-31T11:30:37.370Z,8.49
2018-01-31T11:31:37.358Z,8.55
2018-01-31T11:32:37.349Z,8.48
2018-01-31T11:33:37.336Z,8.48
2018-01-31T11:34:37.323Z,8.48
2018-01-31T11:35:37.313Z,8.42
2018-01-31T11:36:37.302Z,8.36
2018-01-31T11:37:37.291Z,8.31
2018-01-31T11:38:37.279Z,8.37
2018-01-31T11:39:37.267Z,8.19
2018-01-31T11:40:37.256Z,8.24
2018-01-31T11:41:37.251Z,8.26
2018-01-31T11:42:37.233Z,8.24
2018-01-31T11:43:37.226Z,8.30
2018-01-31T11:44:37.216Z,8.36
2018-01-31T11:45:37.200Z,8.33
2018-01-31T11:46:37.187Z,8.20
2018-01-31T11:47:37.175Z,8.20
2018-01-31T11:48:37.165Z,8.28
2018-01-31T11:49:37.160Z,8.33
2018-01-31T11:50:37.141Z,8.19
2018-01-31T11:51:37.131Z,8.36
2018-01-31T11:52:37.121Z,8.33
2018-01-31T11:53:37.108Z,8.28
2018-01-31T11:54:37.096Z,8.33
2018-01-31T11:55:37.085Z,8.33
2018-01-31T11:56:37.073Z,8.31
2018-01-31T11:57:37.062Z,8.36
2018-01-31T11:58:37.049Z,8.38
2018-01-31T11:59:37.038Z,8.31
2018-01-31T12:00:37.028Z,8.30
2018-01-31T12:01:37.065Z,8.31
2018-01-31T12:02:37.003Z,8.30
2018-01-31T12:03:36.992Z,8.37
2018-01-31T12:04:36.981Z,8.16
2018-01-31T12:05:36.970Z,8.24
2018-01-31T12:06:36.957Z,8.16
2018-01-31T12:07:36.946Z,8.12
2018-01-31T12:08:36.936Z,7.98
2018-01-31T12:09:36.924Z,8.00
2018-01-31T12:10:36.911Z,8.03
2018-01-31T12:11:36.900Z,8.03
2018-01-31T12:12:36.888Z,8.05
2018-01-31T12:13:36.877Z,8.00
2018-01-31T12:14:36.864Z,8.05
2018-01-31T12:15:36.854Z,7.95
2018-01-31T12:16:36.842Z,7.93
2018-01-31T12:17:36.830Z,7.93
2018-01-31T12:18:36.818Z,7.90
2018-01-31T12:19:36.807Z,7.88
2018-01-31T12:20:36.795Z,7.85
2018-01-31T12:21:36.785Z,7.87
2018-01-31T12:22:36.771Z,7.90
2018-01-31T12:23:36.781Z,7.85
2018-01-31T12:24:36.748Z,7.88
2018-01-31T12:25:36.736Z,7.90
2018-01-31T12:26:36.723Z,7.79
2018-01-31T12:27:36.712Z,7.75
2018-01-31T12:28:36.701Z,7.77
2018-01-31T12:29:36.688Z,7.75
2018-01-31T12:30:36.685Z,7.75
2018-01-31T12:31:36.664Z,7.72
2018-01-31T12:32:36.653Z,7.82
2018-01-31T12:33:36.641Z,7.66
2018-01-31T12:34:36.632Z,7.75
2018-01-31T12:35:36.616Z,7.67
2018-01-31T12:36:36.605Z,7.72
2018-01-31T12:37:36.637Z,7.69
2018-01-31T12:38:36.580Z,7.70
2018-01-31T12:39:36.568Z,7.67
2018-01-31T12:40:36.560Z,7.66
2018-01-31T12:41:36.545Z,7.72
2018-01-31T12:42:36.534Z,7.69
2018-01-31T12:43:36.520Z,7.63
2018-01-31T12:44:36.508Z,7.69
2018-01-31T12:45:36.497Z,7.69
2018-01-31T12:46:36.485Z,7.72
2018-01-31T12:47:36.472Z,7.58
2018-01-31T12:48:36.461Z,7.63
2018-01-31T12:49:36.449Z,7.66
2018-01-31T12:50:36.438Z,7.67
2018-01-31T12:51:36.427Z,7.63
2018-01-31T12:52:36.412Z,7.67
2018-01-31T12:53:36.400Z,7.63
2018-01-31T12:54:36.387Z,7.69
2018-01-31T12:55:36.375Z,7.67
2018-01-31T12:56:36.363Z,7.69
2018-01-31T12:57:36.351Z,7.60
2018-01-31T12:58:36.341Z,7.61
2018-01-31T12:59:36.326Z,7.53
2018-01-31T13:00:36.314Z,7.51
2018-01-31T13:01:36.303Z,7.56
2018-01-31T13:02:36.289Z,7.54
2018-01-31T13:03:36.281Z,7.66
2018-01-31T13:04:36.265Z,7.53
2018-01-31T13:05:36.254Z,7.66
2018-01-31T13:06:36.241Z,7.53
2018-01-31T13:07:36.229Z,7.67
2018-01-31T13:08:36.220Z,7.57
2018-01-31T13:09:36.205Z,7.53
2018-01-31T13:10:36.191Z,7.54
2018-01-31T13:11:36.180Z,7.63
2018-01-31T13:12:36.171Z,7.63
2018-01-31T13:13:36.158Z,7.69
2018-01-31T13:14:36.143Z,7.60
2018-01-31T13:15:36.132Z,7.60
2018-01-31T13:16:36.120Z,7.63
2018-01-31T13:17:36.108Z,7.72
2018-01-31T13:18:36.095Z,7.63
2018-01-31T13:19:36.084Z,7.70
2018-01-31T13:20:36.119Z,7.70
2018-01-31T13:21:36.060Z,7.66
2018-01-31T13:22:36.047Z,7.63
2018-01-31T13:23:36.035Z,7.57
2018-01-31T13:24:36.023Z,7.67
2018-01-31T13:25:36.011Z,7.70
2018-01-31T13:26:35.998Z,7.70
2018-01-31T13:27:35.986Z,7.48
2018-01-31T13:28:35.974Z,7.54
2018-01-31T13:29:35.963Z,7.60
2018-01-31T13:30:35.950Z,7.50
2018-01-31T13:31:35.938Z,7.53
2018-01-31T13:32:35.926Z,7.43
2018-01-31T13:33:35.914Z,7.39
2018-01-31T13:34:35.900Z,7.33
2018-01-31T13:35:35.889Z,7.35
2018-01-31T13:36:35.876Z,7.23
2018-01-31T13:37:35.864Z,7.33
2018-01-31T13:38:35.851Z,7.33
2018-01-31T13:39:35.839Z,7.20
2018-01-31T13:40:35.826Z,7.20
2018-01-31T13:41:35.822Z,7.23
2018-01-31T13:42:35.801Z,7.20
2018-01-31T13:43:35.789Z,7.31
2018-01-31T13:44:35.776Z,7.23
2018-01-31T13:45:35.765Z,7.21
2018-01-31T13:46:35.751Z,7.21
2018-01-31T13:47:35.739Z,7.21
2018-01-31T13:49:35.714Z,7.21
2018-01-31T13:50:35.702Z,7.17
2018-01-31T13:51:35.689Z,7.21
2018-01-31T13:52:35.676Z,7.10
2018-01-31T13:53:35.664Z,7.21
2018-01-31T13:54:35.669Z,7.23
2018-01-31T13:55:35.639Z,7.07
2018-01-31T13:56:35.628Z,7.13
2018-01-31T13:57:35.614Z,7.10
2018-01-31T13:58:35.618Z,7.10
2018-01-31T13:59:35.589Z,7.07
2018-01-31T14:00:35.576Z,7.14
2018-01-31T14:01:35.564Z,7.07
2018-01-31T14:02:35.552Z,7.14
2018-01-31T14:03:35.538Z,6.99
2018-01-31T14:04:35.526Z,7.13
2018-01-31T14:05:35.513Z,7.11
2018-01-31T14:06:35.500Z,6.99
2018-01-31T14:07:35.488Z,7.11
2018-01-31T14:08:35.519Z,6.96
2018-01-31T14:09:35.462Z,7.05
2018-01-31T14:10:35.450Z,7.13
2018-01-31T14:11:35.438Z,7.13
2018-01-31T14:12:35.428Z,7.00
2018-01-31T14:13:35.411Z,6.95
2018-01-31T14:14:35.398Z,6.99
2018-01-31T14:15:35.387Z,7.00
2018-01-31T14:16:35.373Z,6.97
2018-01-31T14:17:35.361Z,7.03
2018-01-31T14:18:35.347Z,6.97
2018-01-31T14:19:35.335Z,7.05
2018-01-31T14:20:35.323Z,7.02
2018-01-31T14:21:35.310Z,7.05
2018-01-31T14:22:35.297Z,6.85
2018-01-31T14:23:35.284Z,6.88
2018-01-31T14:24:35.271Z,6.93
2018-01-31T14:25:35.258Z,6.82
2018-01-31T14:26:35.246Z,6.81
2018-01-31T14:27:35.245Z,6.89
2018-01-31T14:28:35.220Z,6.88
2018-01-31T14:29:35.207Z,6.88
2018-01-31T14:30:35.193Z,6.84
2018-01-31T14:31:35.180Z,6.77
2018-01-31T14:32:35.169Z,6.75
2018-01-31T14:33:35.155Z,6.85
2018-01-31T14:34:35.141Z,6.81
2018-01-31T14:35:35.130Z,6.82
2018-01-31T14:36:35.116Z,6.72
2018-01-31T14:37:35.108Z,6.79
2018-01-31T14:38:35.091Z,6.75
2018-01-31T14:39:35.077Z,6.78
2018-01-31T14:40:35.064Z,6.82
2018-01-31T14:41:35.052Z,6.60
2018-01-31T14:42:35.041Z,6.52
2018-01-31T14:43:35.026Z,6.41
2018-01-31T14:44:35.013Z,6.35
2018-01-31T14:45:35.000Z,6.22
2018-01-31T14:46:34.995Z,6.22
2018-01-31T14:47:35.033Z,6.12
2018-01-31T14:48:34.966Z,6.05
2018-01-31T14:49:34.948Z,5.99
2018-01-31T14:50:34.933Z,5.93
2018-01-31T14:51:34.920Z,6.01
2018-01-31T14:52:34.908Z,5.98
2018-01-31T14:53:34.894Z,5.87
2018-01-31T14:54:34.880Z,5.91
2018-01-31T14:55:34.867Z,5.99
2018-01-31T14:56:34.855Z,5.91
2018-01-31T14:57:34.841Z,5.98
2018-01-31T14:58:34.828Z,5.94
2018-01-31T14:59:34.814Z,5.94
2018-01-31T15:00:34.801Z,5.93
2018-01-31T15:01:34.788Z,5.98
2018-01-31T15:02:34.774Z,5.97
2018-01-31T15:03:34.761Z,5.98
2018-01-31T15:04:34.748Z,5.98
2018-01-31T15:05:34.782Z,5.98
2018-01-31T15:06:34.721Z,5.97
2018-01-31T15:07:34.709Z,6.01
2018-01-31T15:08:34.696Z,5.97
2018-01-31T15:09:34.682Z,5.90
2018-01-31T15:10:34.669Z,5.89
2018-01-31T15:11:34.654Z,5.91
2018-01-31T15:12:34.642Z,5.87
2018-01-31T15:13:34.628Z,5.89
2018-01-31T15:14:34.615Z,5.79
2018-01-31T15:15:34.602Z,5.80